KBIH/BIH METAR and TAF weather

Enter ICAO airport designator
Station Type Date Time Source
KBIH METAR 2019/06/20 06:56 UTC NOAA

KBIH 200656Z AUTO 36010KT 10SM CLR 23/06 A2994 RMK AO2 SLP081 T02280056


Station Type Date Time Source
KBIH Decoded METAR 2019/06/20 06:56 UTC NOAA

BISHOP AIRPORT, CA, United States (KBIH) 37-22N 118-22W 1253M
Jun 20, 2019 - 02:56 AM EDT / 2019.06.20 0656 UTC
Wind: from the N (360 degrees) at 12 MPH (10 KT):0
Visibility: 10 mile(s):0
Sky conditions: clear
Temperature: 73.0 F (22.8 C)
Dew Point: 42.1 F (5.6 C)
Relative Humidity: 32%
Pressure (altimeter): 29.94 in. Hg (1013 hPa)
ob: KBIH 200656Z AUTO 36010KT 10SM CLR 23/06 A2994 RMK AO2 SLP081 T02280056
cycle: 7

Station Type Date Time Source
KBIH TAF 2019/06/20 06:22 UTC NOAA

TAF KBIH 200520Z 2006/2106 33007KT P6SM SKC
FM201800 34010G18KT P6SM SKC
FM202300 35018G28KT P6SM SKC

Example: see airport list